メインページ
METAR-TAF:

METAR-TAF

空港 :

モントリオール・ピエール・エリオット・トルドー国際空港

モントリオール・トルドー, ケベック州, カナダ

緯度: 45-28N, 経度: 073-45W, 海抜: 31m

現時点の気象観測

当レポートは55分前の03:00(UTC)に作成
西/南西の風 7kt
気温 17°C
湿度 52%
気圧 1019 hPa
視程: 24.1km
高度25000ftの千切れ雲あり

METAR: CYUL 220300Z 24007KT 15SM BKN250 17/07 A3010 RMK CI6 SLP194 DENSITY ALT 200FT

時間: 23:55 (03:55 UTC)

予報

当レポートは1時間17分前の02:38(UTC)に作成
予報は22日の 03時(UTC)から 22日の 24時(UTC)まで有効
西/南西の風 5kt
視程: 10km
高度24000ftの千切れ雲あり
22日の 1200時(UTC)から
南/南西の風 7kt
視程: 10km
高度20000ftの千切れ雲あり
22日の 1700時(UTC)から
南西の風 15kt
視程: 10km
高度8000ftの千切れ雲あり
22日の 2000時(UTC)から
南/南東の風 10kt
視程: 10km
高度4000ftの曇り
小雨
22日の 2300時(UTC)から
南/南東の風 10kt
視程: 4.8km
高度1500ftの曇り
小雨, 靄

TAF: CYUL 220238Z 2203/2224 25005KT P6SM BKN240 FM221200 21007KT P6SM BKN200 FM221700 22015KT P6SM BKN080 FM222000 15010KT P6SM -RA OVC040 FM222300 15010KT 3SM -RA BR OVC015 RMK NXT FCST BY 220600Z

4,000以上の空港の気象観測と天気予報(METAR報とTAF報)

利用可能な観測所は地図上に黄色い丸と赤い丸で示す。

丸の上にカーソルを重ねると観測所名を参照できる。

次にクリックすると気象観測と天気予報を参照できる。

マップの切り替え:黒色「×」印の緑ボタンをクリックして拡大、「-」印の緑ボタンをクリックして縮小、緑色の三角印をクリックして隣りの地図に切り替え


METAR-TAF: